createdAt,value
2023-08-10T12:57:25.536Z,1.80
2023-08-10T12:59:52.988Z,1.80
2023-08-10T13:02:31.710Z,2.30
2023-08-10T13:05:01.210Z,1.50
2023-08-10T13:07:28.756Z,1.70
2023-08-10T13:09:56.967Z,2.10
2023-08-10T13:12:24.276Z,1.50
2023-08-10T13:14:51.570Z,1.90
2023-08-10T13:17:18.890Z,2.10
2023-08-10T13:19:46.297Z,1.80
2023-08-10T13:22:13.750Z,1.60
2023-08-10T13:24:41.427Z,1.80
2023-08-10T13:27:08.826Z,2.00
2023-08-10T13:29:36.202Z,1.90
2023-08-10T13:32:04.755Z,1.60
2023-08-10T13:34:32.379Z,2.00
2023-08-10T13:36:59.636Z,1.60
2023-08-10T13:39:26.907Z,2.20
2023-08-10T13:41:54.352Z,1.80
2023-08-10T13:44:21.638Z,1.60
2023-08-10T13:46:49.034Z,1.80
2023-08-10T13:49:16.913Z,1.70
2023-08-10T13:51:45.841Z,1.90
2023-08-10T13:54:13.197Z,2.20
2023-08-10T13:56:59.717Z,1.70
2023-08-10T13:59:28.139Z,1.50
2023-08-10T14:01:55.596Z,1.80
2023-08-10T14:04:23.092Z,1.90
2023-08-10T14:06:50.769Z,1.60
2023-08-10T14:09:18.333Z,2.00
2023-08-10T14:11:45.659Z,2.20
2023-08-10T14:14:13.852Z,1.80
2023-08-10T14:19:08.584Z,2.10
2023-08-10T14:21:35.822Z,1.80
2023-08-10T14:24:03.334Z,2.00
2023-08-10T14:26:30.788Z,1.60
2023-08-10T14:28:58.078Z,2.30
2023-08-10T14:31:25.495Z,2.20
2023-08-10T14:33:53.135Z,1.90
2023-08-10T14:36:20.825Z,2.20
2023-08-10T14:38:48.294Z,1.70
2023-08-10T14:41:16.028Z,1.90
2023-08-10T14:43:43.380Z,1.60
2023-08-10T14:46:11.686Z,2.10
2023-08-10T14:48:39.262Z,2.30
2023-08-10T14:51:06.603Z,2.10
2023-08-10T14:53:33.951Z,1.80
2023-08-10T14:56:01.256Z,2.00
2023-08-10T14:58:29.011Z,1.80
2023-08-10T15:00:56.498Z,1.60
2023-08-10T15:03:25.134Z,2.50
2023-08-10T15:05:52.472Z,1.70
2023-08-10T15:08:20.113Z,1.60
2023-08-10T15:10:47.528Z,2.00
2023-08-10T15:13:14.843Z,1.70
2023-08-10T15:15:42.416Z,2.50
2023-08-10T15:18:09.741Z,2.20
2023-08-10T15:20:37.146Z,2.20
2023-08-10T15:23:15.889Z,1.90
2023-08-10T15:25:53.608Z,2.20
2023-08-10T15:28:21.068Z,2.00
2023-08-10T15:30:49.716Z,2.40
2023-08-10T15:33:17.041Z,2.50
2023-08-10T15:35:45.871Z,2.30
2023-08-10T15:38:13.319Z,2.50
2023-08-10T15:40:40.912Z,2.50
2023-08-10T15:43:08.279Z,1.80
2023-08-10T15:45:36.180Z,1.90
2023-08-10T15:48:03.734Z,2.40
2023-08-10T15:50:31.136Z,1.90
2023-08-10T15:52:58.434Z,2.90
2023-08-10T15:55:25.936Z,2.10
2023-08-10T15:57:53.310Z,2.60
2023-08-10T16:00:20.838Z,2.00
2023-08-10T16:02:48.355Z,1.90
2023-08-10T16:05:15.745Z,2.40
2023-08-10T16:07:43.481Z,2.40
2023-08-10T16:10:11.614Z,1.80
2023-08-10T16:15:07.182Z,2.10
2023-08-10T16:17:35.256Z,2.20
2023-08-10T16:20:04.369Z,1.90
2023-08-10T16:22:31.771Z,1.90
2023-08-10T16:24:59.533Z,2.20
2023-08-10T16:27:26.893Z,1.80
2023-08-10T16:29:54.208Z,2.30
2023-08-10T16:32:21.531Z,2.10
2023-08-10T16:34:48.869Z,2.00
2023-08-10T16:37:16.290Z,2.40
2023-08-10T16:39:43.659Z,1.80
2023-08-10T16:42:10.983Z,2.30
2023-08-10T16:44:38.517Z,1.90
2023-08-10T16:47:06.587Z,2.20
2023-08-10T16:49:33.868Z,1.90
2023-08-10T16:52:01.353Z,2.50
2023-08-10T16:54:28.739Z,3.60
2023-08-10T16:56:56.684Z,3.50
2023-08-10T16:59:24.200Z,2.90
2023-08-10T17:01:52.791Z,2.30
2023-08-10T17:04:21.750Z,3.00
2023-08-10T17:06:48.989Z,2.40
2023-08-10T17:09:19.094Z,2.70
2023-08-10T17:11:46.546Z,2.50
2023-08-10T17:14:13.901Z,2.30
2023-08-10T17:16:41.429Z,2.20
2023-08-10T17:19:08.796Z,2.10
2023-08-10T17:21:36.753Z,1.70
2023-08-10T17:24:04.551Z,2.40
2023-08-10T17:26:31.965Z,2.60
2023-08-10T17:29:09.964Z,2.30
2023-08-10T17:31:41.986Z,1.90
2023-08-10T17:34:09.263Z,2.20
2023-08-10T17:36:36.558Z,2.40
2023-08-10T17:39:04.310Z,2.60
2023-08-10T17:41:31.733Z,1.70
2023-08-10T17:43:59.214Z,2.70
2023-08-10T17:46:27.600Z,2.20
2023-08-10T17:48:54.998Z,2.10
2023-08-10T17:51:22.282Z,2.10
2023-08-10T17:53:49.689Z,2.20
2023-08-10T17:56:16.932Z,2.50
2023-08-10T17:58:44.196Z,2.10
2023-08-10T18:01:11.693Z,2.40
2023-08-10T18:03:39.039Z,2.40
2023-08-10T18:06:06.339Z,2.40
2023-08-10T18:08:33.734Z,2.40
2023-08-10T18:11:01.203Z,2.90
2023-08-10T18:13:28.514Z,2.00
2023-08-10T18:15:55.932Z,1.90
2023-08-10T18:18:23.191Z,2.50
2023-08-10T18:20:50.625Z,2.20
2023-08-10T18:23:19.828Z,2.00
2023-08-10T18:25:47.088Z,2.30
2023-08-10T18:28:14.377Z,2.50
2023-08-10T18:30:41.802Z,2.50
2023-08-10T18:33:09.588Z,2.30
2023-08-10T18:35:37.557Z,3.10
2023-08-10T18:38:05.091Z,3.10
2023-08-10T18:40:39.818Z,2.80
2023-08-10T18:43:07.551Z,2.70
2023-08-10T18:45:35.618Z,2.90
2023-08-10T18:48:03.632Z,2.80
2023-08-10T18:50:31.151Z,2.70
2023-08-10T18:52:58.534Z,2.60
2023-08-10T18:55:25.883Z,2.30
2023-08-10T18:57:53.216Z,2.30
2023-08-10T19:00:20.596Z,2.80
2023-08-10T19:02:48.201Z,2.30
2023-08-10T19:05:15.591Z,2.40
2023-08-10T19:07:47.618Z,2.50
2023-08-10T19:10:15.285Z,2.70
2023-08-10T19:12:42.662Z,2.10
2023-08-10T19:15:10.553Z,2.30
2023-08-10T19:17:39.595Z,2.90
2023-08-10T19:20:08.626Z,2.40
2023-08-10T19:22:36.029Z,2.50
2023-08-10T19:25:05.073Z,2.10
2023-08-10T19:27:32.896Z,2.50
2023-08-10T19:30:04.108Z,2.40
2023-08-10T19:32:31.519Z,2.20
2023-08-10T19:34:58.839Z,2.20
2023-08-10T19:37:26.174Z,2.70
2023-08-10T19:39:53.534Z,2.30
2023-08-10T19:42:20.838Z,2.30
2023-08-10T19:44:48.101Z,2.50
2023-08-10T19:47:20.933Z,2.40
2023-08-10T19:49:49.534Z,2.50
2023-08-10T19:52:16.934Z,2.40
2023-08-10T19:54:44.348Z,2.20
2023-08-10T19:57:11.789Z,2.10
2023-08-10T19:59:39.044Z,2.30
2023-08-10T20:02:06.585Z,2.70
2023-08-10T20:04:34.492Z,2.10
2023-08-10T20:07:01.819Z,2.50
2023-08-10T20:09:29.319Z,2.50
2023-08-10T20:11:56.614Z,2.50
2023-08-10T20:14:24.019Z,3.20
2023-08-10T20:16:51.345Z,2.80
2023-08-10T20:19:18.828Z,2.80
2023-08-10T20:21:46.740Z,2.90
2023-08-10T20:24:15.430Z,2.90
2023-08-10T20:26:44.138Z,2.40
2023-08-10T20:29:11.595Z,2.50
2023-08-10T20:31:38.911Z,2.40
2023-08-10T20:34:06.258Z,2.80
2023-08-10T20:36:33.566Z,2.50
2023-08-10T20:39:00.958Z,2.70
2023-08-10T20:41:28.839Z,2.40
2023-08-10T20:43:56.134Z,2.70
2023-08-10T20:46:25.047Z,2.60
2023-08-10T20:48:53.458Z,2.20
2023-08-10T20:51:22.157Z,2.40
2023-08-10T20:53:51.819Z,3.10
2023-08-10T20:56:19.273Z,2.40
2023-08-10T20:58:46.818Z,2.80
2023-08-10T21:01:14.812Z,2.90
2023-08-10T21:03:44.174Z,2.70
2023-08-10T21:06:12.877Z,3.30
2023-08-10T21:08:41.452Z,2.90
2023-08-10T21:11:09.457Z,2.70
2023-08-10T21:13:37.053Z,3.10
2023-08-10T21:16:04.564Z,3.20
2023-08-10T21:18:31.917Z,2.80
2023-08-10T21:20:59.346Z,2.90
2023-08-10T21:23:27.756Z,3.10
2023-08-10T21:25:55.232Z,3.60
2023-08-10T21:28:22.635Z,3.20
2023-08-10T21:30:49.982Z,2.90
2023-08-10T21:33:17.541Z,3.70
2023-08-10T21:35:44.986Z,3.20
2023-08-10T21:38:12.390Z,3.00
2023-08-10T21:40:39.888Z,2.80
2023-08-10T21:43:09.060Z,2.80
2023-08-10T21:45:36.990Z,3.70
2023-08-10T21:48:04.667Z,3.20
2023-08-10T21:50:31.985Z,3.70
2023-08-10T21:52:59.336Z,3.30
2023-08-10T21:55:26.767Z,3.00
2023-08-10T21:57:54.109Z,2.60
2023-08-10T22:00:23.146Z,3.00
2023-08-10T22:02:51.137Z,3.00
2023-08-10T22:05:18.704Z,3.20
2023-08-10T22:07:46.443Z,3.60
2023-08-10T22:10:13.857Z,3.00
2023-08-10T22:12:41.164Z,2.60
2023-08-10T22:15:11.443Z,2.40
2023-08-10T22:17:38.886Z,2.90
2023-08-10T22:20:16.464Z,2.80
2023-08-10T22:22:57.829Z,2.70
2023-08-10T22:25:30.542Z,2.60
2023-08-10T22:28:00.555Z,2.70
2023-08-10T22:30:28.046Z,2.50
2023-08-10T22:32:55.374Z,2.80
2023-08-10T22:35:23.003Z,2.50
2023-08-10T22:37:50.294Z,2.80
2023-08-10T22:40:17.799Z,2.40
2023-08-10T22:42:45.265Z,2.80
2023-08-10T22:45:12.577Z,2.80
2023-08-10T22:47:40.100Z,3.10
2023-08-10T22:50:07.988Z,3.20
2023-08-10T22:52:35.326Z,3.20
2023-08-10T22:55:02.718Z,3.60
2023-08-10T22:57:30.183Z,3.00
2023-08-10T22:59:57.491Z,3.20
2023-08-10T23:02:24.790Z,3.20
2023-08-10T23:04:52.139Z,3.20
2023-08-10T23:07:19.512Z,4.80
2023-08-10T23:09:46.801Z,4.20
2023-08-10T23:12:14.198Z,4.90
2023-08-10T23:14:41.480Z,4.70
2023-08-10T23:17:08.836Z,5.50
2023-08-10T23:19:36.212Z,5.00
2023-08-10T23:22:03.602Z,5.50
2023-08-10T23:24:30.903Z,4.90
2023-08-10T23:26:58.251Z,5.50
2023-08-10T23:29:26.184Z,4.60
2023-08-10T23:31:55.661Z,5.00
2023-08-10T23:34:23.109Z,4.60
2023-08-10T23:36:51.119Z,4.20
2023-08-10T23:39:18.514Z,4.40
2023-08-10T23:41:45.923Z,5.00
2023-08-10T23:44:16.523Z,3.80
2023-08-10T23:46:43.841Z,4.40
2023-08-10T23:49:12.562Z,4.20
2023-08-10T23:51:40.702Z,3.90
2023-08-10T23:54:08.084Z,3.80
2023-08-10T23:56:36.340Z,3.70
2023-08-10T23:59:03.822Z,3.60
